Antioch, Illinois
Current Conditions -  °F | °C
As of 10:53 AM on Tuesday 21 Oct 2014 (Local Time) from KENW Reporting Station
Overcast Overcast  
Wind Chill: 10°   Ceiling: 4000
Heat Index: 10°   Visibility: 10mi
Dew Point:   Wind: 12mph
Humidity: 68%   Direction: 10°N
Pressure: 30.19"   Gusts: NA
Location:  42.48°N, 88.1°W
Report Text: KENW 211553Z 01010KT 10SM FEW022 OVC040 10/04 A3019 RMK AO2 SLP225 T01000044
Loading
Personal Weather Stations






























Interactive Weather Map
Tropical Storm Tracking
New forecast layout! Learn more

10-Day Weather Forecast

Advertisements
Track Severe Weather on mobile